Terminal Aerodrome Forecast
Issued by NWS

Home | Current Version | Previous Version | Text Only | Print | Product List | Glossary On
Versions: 1 2 3 4 5 6 7 8 9 10 11 12 13 14 15 16 17 18 19 20 21 22 23 24
327
FTUS42 KGSP 271130
TAFGMU
TAF
KGMU 271130Z 2712/2812 20004KT 6SM BR BKN006 OVC014
      TEMPO 2712/2714 SCT006 OVC014
     FM271400 19005KT P6SM SCT015 BKN025
     FM271600 15007KT P6SM BKN045 PROB30 2721/2803 4SM -TSRA
      OVC025CB
     FM280300 07004KT P6SM -SHRA OVC035
     FM280700 04007KT 6SM SHRA BR OVC015
     FM281000 04007KT 5SM +SHRA BR OVC006=

USA.gov is the U.S. government's official web portal to all federal, state and local government web resources and services.